Time;durP1;ratioP1;P1;durP2;ratioP2;P2;SDS_P1;SDS_P2;PMS_P1;PMS_P2;Temp;Humidity;BMP_temperature;BMP_pressure;BME280_temperature;BME280_humidity;BME280_pressure;Samples;Min_cycle;Max_cycle;Signal;HPM_P1;HPM_P2
2023/10/30 00:01:45;;;;;;;;;;;11.50;99.90;;;;;;5176888;27;19923;-41
2023/10/30 00:04:10;;;;;;;;;;;11.50;99.90;;;;;;5176861;27;20429;-43
2023/10/30 00:06:36;;;;;;;;;;;11.50;99.90;;;;;;5176747;27;19922;-41
2023/10/30 00:09:02;;;;;;;;;;;11.50;99.90;;;;;;5176820;27;19929;-42
2023/10/30 00:11:27;;;;;;;;;;;11.40;99.90;;;;;;5176879;27;19927;-41
2023/10/30 00:13:53;;;;;;;;;;;11.40;99.90;;;;;;5158638;27;19930;-41
2023/10/30 00:16:18;;;;;;;;;;;11.40;99.90;;;;;;5176732;27;19991;-42
2023/10/30 00:18:45;;;;;;;;;;;11.40;99.90;;;;;;5176714;27;20422;-41
2023/10/30 00:21:11;;;;;;;;;;;11.40;99.90;;;;;;5176486;27;20423;-41
2023/10/30 00:23:36;;;;;;;;;;;11.30;99.90;;;;;;5176993;27;19988;-41
2023/10/30 00:26:03;;;;;;;;;;;11.30;99.90;;;;;;5176654;27;20365;-41
2023/10/30 00:28:30;;;;;;;;;;;11.30;99.90;;;;;;5176586;27;19923;-41
2023/10/30 00:30:56;;;;;;;;;;;11.30;99.90;;;;;;5158369;27;19975;-41
2023/10/30 00:33:21;;;;;;;;;;;11.20;99.90;;;;;;5176466;27;19927;-41
2023/10/30 00:35:47;;;;;;;;;;;11.20;99.90;;;;;;5176302;27;19927;-41
2023/10/30 00:38:12;;;;;;;;;;;11.20;99.90;;;;;;5176544;27;19923;-42
2023/10/30 00:40:38;;;;;;;;;;;11.20;99.90;;;;;;5176965;27;19923;-41
2023/10/30 00:43:04;;;;;;;;;;;11.20;99.90;;;;;;5180725;27;20017;-41
2023/10/30 00:45:30;;;;;;;;;;;11.20;99.90;;;;;;5180798;27;20366;-41
2023/10/30 00:47:56;;;;;;;;;;;11.20;99.90;;;;;;5180570;27;19923;-41
2023/10/30 00:50:21;;;;;;;;;;;11.10;99.90;;;;;;5180518;27;19923;-41
2023/10/30 00:52:47;;;;;;;;;;;11.10;99.90;;;;;;5180625;27;20340;-41
2023/10/30 00:55:13;;;;;;;;;;;11.10;99.90;;;;;;5180225;27;19930;-42
2023/10/30 00:57:38;;;;;;;;;;;11.10;99.90;;;;;;5180668;27;19968;-41
2023/10/30 01:00:04;;;;;;;;;;;11.10;99.90;;;;;;5180379;27;20385;-42
2023/10/30 01:02:30;;;;;;;;;;;11.10;99.90;;;;;;5180347;27;20385;-42
2023/10/30 01:04:55;;;;;;;;;;;11.00;99.90;;;;;;5180300;27;19923;-41
2023/10/30 01:07:21;;;;;;;;;;;11.00;99.90;;;;;;5161801;27;19923;-41
2023/10/30 01:09:47;;;;;;;;;;;11.00;99.90;;;;;;5180216;27;19946;-41
2023/10/30 01:12:13;;;;;;;;;;;11.00;99.90;;;;;;5180089;27;19923;-42
2023/10/30 01:14:38;;;;;;;;;;;11.00;99.90;;;;;;5180125;27;20259;-42
2023/10/30 01:17:04;;;;;;;;;;;11.00;99.90;;;;;;5180019;27;19926;-41
2023/10/30 01:19:29;;;;;;;;;;;10.90;99.90;;;;;;5179911;27;20034;-41
2023/10/30 01:21:55;;;;;;;;;;;10.90;99.90;;;;;;5180344;27;19923;-41
2023/10/30 01:24:21;;;;;;;;;;;10.90;99.90;;;;;;5180276;27;20274;-41
2023/10/30 01:26:46;;;;;;;;;;;10.90;99.90;;;;;;5180072;27;19962;-41
2023/10/30 01:29:12;;;;;;;;;;;10.80;99.90;;;;;;5180240;27;20452;-41
2023/10/30 01:31:37;;;;;;;;;;;10.80;99.90;;;;;;5179869;27;20365;-41
2023/10/30 01:34:03;;;;;;;;;;;10.80;99.90;;;;;;5179644;27;20285;-42
2023/10/30 01:36:30;;;;;;;;;;;10.80;99.90;;;;;;5179650;27;20005;-42
2023/10/30 01:38:55;;;;;;;;;;;10.80;99.90;;;;;;5180129;27;19922;-42
2023/10/30 01:41:21;;;;;;;;;;;10.80;99.90;;;;;;5179645;27;19923;-41
2023/10/30 01:43:47;;;;;;;;;;;10.70;99.90;;;;;;5143938;27;19968;-41
2023/10/30 01:46:12;;;;;;;;;;;10.70;99.90;;;;;;5179413;27;19974;-41
2023/10/30 01:48:38;;;;;;;;;;;10.70;99.90;;;;;;5160958;27;19930;-42
2023/10/30 01:51:04;;;;;;;;;;;10.70;99.90;;;;;;5179325;27;19923;-41
2023/10/30 01:53:31;;;;;;;;;;;10.70;99.90;;;;;;5179419;27;20296;-42
2023/10/30 01:55:58;;;;;;;;;;;10.70;99.90;;;;;;5160692;27;19930;-42
2023/10/30 01:58:23;;;;;;;;;;;10.70;99.90;;;;;;5179320;27;19929;-41
2023/10/30 02:00:50;;;;;;;;;;;10.70;99.90;;;;;;5160826;27;19998;-41
2023/10/30 02:03:15;;;;;;;;;;;10.70;99.90;;;;;;5179167;27;19923;-42
2023/10/30 02:05:41;;;;;;;;;;;10.60;99.90;;;;;;5179238;27;19927;-41
2023/10/30 02:08:08;;;;;;;;;;;10.60;99.90;;;;;;5179615;27;19922;-41
2023/10/30 02:10:33;;;;;;;;;;;10.60;99.90;;;;;;5178942;27;19926;-41
2023/10/30 02:12:59;;;;;;;;;;;10.60;99.90;;;;;;5178990;27;19923;-41
2023/10/30 02:15:24;;;;;;;;;;;10.60;99.90;;;;;;5178797;27;19923;-41
2023/10/30 02:17:50;;;;;;;;;;;10.60;99.90;;;;;;5178751;27;20443;-42
2023/10/30 02:20:16;;;;;;;;;;;10.60;99.90;;;;;;5160251;27;20437;-42
2023/10/30 02:22:41;;;;;;;;;;;10.60;99.90;;;;;;5178794;27;19927;-41
2023/10/30 02:25:07;;;;;;;;;;;10.60;99.90;;;;;;5178862;27;20084;-41
2023/10/30 02:27:33;;;;;;;;;;;10.60;99.90;;;;;;5178763;27;19991;-42
2023/10/30 02:29:58;;;;;;;;;;;10.50;99.90;;;;;;5178558;27;20025;-41
2023/10/30 02:32:24;;;;;;;;;;;10.50;99.90;;;;;;5178442;27;20388;-42
2023/10/30 02:34:50;;;;;;;;;;;10.50;99.90;;;;;;5160125;27;19923;-41
2023/10/30 02:37:15;;;;;;;;;;;10.50;99.90;;;;;;5159984;27;20367;-41
2023/10/30 02:39:41;;;;;;;;;;;10.50;99.90;;;;;;5178730;27;20286;-41
2023/10/30 02:42:08;;;;;;;;;;;10.50;99.90;;;;;;5178350;27;19923;-41
2023/10/30 02:44:33;;;;;;;;;;;10.50;99.90;;;;;;5178400;27;19923;-41
2023/10/30 02:46:59;;;;;;;;;;;10.40;99.90;;;;;;5178247;27;19923;-42
2023/10/30 02:49:25;;;;;;;;;;;10.40;99.90;;;;;;5178152;27;19926;-42
2023/10/30 02:51:51;;;;;;;;;;;10.40;99.90;;;;;;5178209;27;20293;-42
2023/10/30 02:54:16;;;;;;;;;;;10.40;99.90;;;;;;5159517;27;20289;-41
2023/10/30 02:56:42;;;;;;;;;;;10.40;99.90;;;;;;5177957;27;19975;-41
2023/10/30 02:59:08;;;;;;;;;;;10.40;99.90;;;;;;5178080;27;19931;-42
2023/10/30 03:01:34;;;;;;;;;;;10.40;99.90;;;;;;5177762;27;20408;-41
2023/10/30 03:04:01;;;;;;;;;;;10.40;99.90;;;;;;5177273;27;19930;-42
2023/10/30 03:06:26;;;;;;;;;;;10.40;99.90;;;;;;5178002;27;19927;-42
2023/10/30 03:08:52;;;;;;;;;;;10.40;99.90;;;;;;5177845;27;19966;-42
2023/10/30 03:11:18;;;;;;;;;;;10.40;99.90;;;;;;5177871;27;19927;-41
2023/10/30 03:13:43;;;;;;;;;;;10.30;99.90;;;;;;5177766;27;20009;-41
2023/10/30 03:16:09;;;;;;;;;;;10.40;99.90;;;;;;5177693;27;20055;-42
2023/10/30 03:18:34;;;;;;;;;;;10.40;99.90;;;;;;5177590;27;20282;-42
2023/10/30 03:21:00;;;;;;;;;;;10.30;99.90;;;;;;5177700;27;19975;-41
2023/10/30 03:23:25;;;;;;;;;;;10.40;99.90;;;;;;5177661;27;19929;-41
2023/10/30 03:25:51;;;;;;;;;;;10.40;99.90;;;;;;5177620;27;20318;-41
2023/10/30 03:28:17;;;;;;;;;;;10.40;99.90;;;;;;5177447;27;19923;-42
2023/10/30 03:30:42;;;;;;;;;;;10.40;99.90;;;;;;5177596;27;19980;-42
2023/10/30 03:33:08;;;;;;;;;;;10.40;99.90;;;;;;5177283;27;19969;-42
2023/10/30 03:35:38;;;;;;;;;;;10.50;99.90;;;;;;5177311;27;19978;-41
2023/10/30 03:38:03;;;;;;;;;;;10.50;99.90;;;;;;5177196;27;20385;-41
2023/10/30 03:40:29;;;;;;;;;;;10.40;99.90;;;;;;5158715;27;20021;-41
2023/10/30 03:42:55;;;;;;;;;;;10.40;99.90;;;;;;5177233;27;19929;-41
2023/10/30 03:45:20;;;;;;;;;;;10.40;99.90;;;;;;5177223;27;19930;-41
2023/10/30 03:47:46;;;;;;;;;;;10.40;99.90;;;;;;5176938;27;19967;-41
2023/10/30 03:50:13;;;;;;;;;;;10.40;99.90;;;;;;5177181;27;19946;-41
2023/10/30 03:52:39;;;;;;;;;;;10.50;99.90;;;;;;5177102;27;20388;-41
2023/10/30 03:55:05;;;;;;;;;;;10.40;99.90;;;;;;5176885;27;19923;-42
2023/10/30 03:57:30;;;;;;;;;;;10.40;99.90;;;;;;5177139;27;19922;-42
2023/10/30 03:59:56;;;;;;;;;;;10.40;99.90;;;;;;5176894;27;19974;-41
2023/10/30 04:02:22;;;;;;;;;;;10.40;99.90;;;;;;5176737;27;20288;-41
2023/10/30 04:04:47;;;;;;;;;;;10.40;99.90;;;;;;5158420;27;19933;-41
2023/10/30 04:07:13;;;;;;;;;;;10.40;99.90;;;;;;5176996;27;20445;-41
2023/10/30 04:09:38;;;;;;;;;;;10.40;99.90;;;;;;5176888;27;19922;-41
2023/10/30 04:12:04;;;;;;;;;;;10.40;99.90;;;;;;5176816;27;19975;-41
2023/10/30 04:14:30;;;;;;;;;;;10.40;99.90;;;;;;5176658;27;19966;-41
2023/10/30 04:16:56;;;;;;;;;;;10.40;99.90;;;;;;5175825;27;19988;-41
2023/10/30 04:19:22;;;;;;;;;;;10.40;99.90;;;;;;5176718;27;20381;-41
2023/10/30 04:21:48;;;;;;;;;;;10.40;99.90;;;;;;5176700;27;19934;-42
2023/10/30 04:24:13;;;;;;;;;;;10.40;99.90;;;;;;5176774;27;19923;-41
2023/10/30 04:26:39;;;;;;;;;;;10.40;99.90;;;;;;5176582;27;19922;-41
2023/10/30 04:29:04;;;;;;;;;;;10.40;99.90;;;;;;5176626;27;19922;-41
2023/10/30 04:31:30;;;;;;;;;;;10.40;99.90;;;;;;5176517;27;20009;-41
2023/10/30 04:33:55;;;;;;;;;;;10.40;99.90;;;;;;5177059;27;19929;-40
2023/10/30 04:36:21;;;;;;;;;;;10.40;99.90;;;;;;5176500;27;19923;-41
2023/10/30 04:38:47;;;;;;;;;;;10.40;99.90;;;;;;5176556;27;20289;-41
2023/10/30 04:41:13;;;;;;;;;;;10.40;99.90;;;;;;5176335;27;19922;-41
2023/10/30 04:43:38;;;;;;;;;;;10.40;99.90;;;;;;5176318;27;19974;-41
2023/10/30 04:46:04;;;;;;;;;;;10.40;99.90;;;;;;5176437;27;19923;-41
2023/10/30 04:48:30;;;;;;;;;;;10.40;99.90;;;;;;5176724;27;19929;-41
2023/10/30 04:50:56;;;;;;;;;;;10.40;99.90;;;;;;5176360;27;19929;-41
2023/10/30 04:53:21;;;;;;;;;;;10.40;99.90;;;;;;5176376;27;20009;-41
2023/10/30 04:55:50;;;;;;;;;;;10.40;99.90;;;;;;5176185;27;19969;-41
2023/10/30 04:58:16;;;;;;;;;;;10.40;99.90;;;;;;5176393;27;19929;-41
2023/10/30 05:00:42;;;;;;;;;;;10.40;99.90;;;;;;5176315;27;20357;-41
2023/10/30 05:03:09;;;;;;;;;;;10.40;99.90;;;;;;5176324;27;19934;-41
2023/10/30 05:05:35;;;;;;;;;;;10.40;99.90;;;;;;5176227;27;20013;-41
2023/10/30 05:08:01;;;;;;;;;;;10.40;99.90;;;;;;5176286;27;19923;-41
2023/10/30 05:10:26;;;;;;;;;;;10.40;99.90;;;;;;5176253;27;19930;-41
2023/10/30 05:12:52;;;;;;;;;;;10.40;99.90;;;;;;5176039;27;19923;-41
2023/10/30 05:15:18;;;;;;;;;;;10.40;99.90;;;;;;5175819;27;20156;-41
2023/10/30 05:17:44;;;;;;;;;;;10.40;99.90;;;;;;5176162;27;20468;-41
2023/10/30 05:20:10;;;;;;;;;;;10.40;99.90;;;;;;5140635;27;19923;-41
2023/10/30 05:22:35;;;;;;;;;;;10.40;99.90;;;;;;5176131;27;20366;-41
2023/10/30 05:25:05;;;;;;;;;;;10.40;99.90;;;;;;5176087;27;20296;-41
2023/10/30 05:27:31;;;;;;;;;;;10.40;99.90;;;;;;5159497;27;19975;-42
2023/10/30 05:29:57;;;;;;;;;;;10.40;99.90;;;;;;5179838;27;20393;-41
2023/10/30 05:32:22;;;;;;;;;;;10.40;99.90;;;;;;5179889;27;20033;-41
2023/10/30 05:34:52;;;;;;;;;;;10.40;99.90;;;;;;5180289;27;19923;-41
2023/10/30 05:37:18;;;;;;;;;;;10.40;99.90;;;;;;5179601;27;19927;-41
2023/10/30 05:39:44;;;;;;;;;;;10.40;99.90;;;;;;5179690;27;19929;-41
2023/10/30 05:42:09;;;;;;;;;;;10.40;99.90;;;;;;5179567;27;20096;-41
2023/10/30 05:44:36;;;;;;;;;;;10.40;99.90;;;;;;5179483;27;19975;-41
2023/10/30 05:47:02;;;;;;;;;;;10.30;99.90;;;;;;5179650;27;20345;-41
2023/10/30 05:49:28;;;;;;;;;;;10.30;99.90;;;;;;5179482;27;19981;-41
2023/10/30 05:51:54;;;;;;;;;;;10.30;99.90;;;;;;5179541;27;19923;-41
2023/10/30 05:54:20;;;;;;;;;;;10.30;99.90;;;;;;5160916;27;19929;-41
2023/10/30 05:56:45;;;;;;;;;;;10.30;99.90;;;;;;5179539;27;19926;-41
2023/10/30 05:59:11;;;;;;;;;;;10.20;99.90;;;;;;5179291;27;19966;-41
2023/10/30 06:01:37;;;;;;;;;;;10.20;99.90;;;;;;5179305;27;20301;-41
2023/10/30 06:04:02;;;;;;;;;;;10.20;99.90;;;;;;5179016;27;19923;-41
2023/10/30 06:06:28;;;;;;;;;;;10.20;99.90;;;;;;5179447;27;19934;-41
2023/10/30 06:08:54;;;;;;;;;;;10.20;99.90;;;;;;5160801;27;19930;-41
2023/10/30 06:11:20;;;;;;;;;;;10.10;99.90;;;;;;5178974;27;20373;-41
2023/10/30 06:13:46;;;;;;;;;;;10.10;99.90;;;;;;5178868;27;19934;-41
2023/10/30 06:16:15;;;;;;;;;;;10.10;99.90;;;;;;5178665;27;19923;-41
2023/10/30 06:18:41;;;;;;;;;;;10.10;99.90;;;;;;5178909;27;19930;-41
2023/10/30 06:21:07;;;;;;;;;;;10.10;99.90;;;;;;5179200;27;19923;-41
2023/10/30 06:23:33;;;;;;;;;;;10.10;99.90;;;;;;5178881;27;19923;-41
2023/10/30 06:25:59;;;;;;;;;;;10.00;99.90;;;;;;5178763;27;20272;-41
2023/10/30 06:28:25;;;;;;;;;;;10.00;99.90;;;;;;5178657;27;19927;-42
2023/10/30 06:30:50;;;;;;;;;;;10.00;99.90;;;;;;5178904;27;20326;-41
2023/10/30 06:33:16;;;;;;;;;;;10.00;99.90;;;;;;5178937;27;20323;-41
2023/10/30 06:35:41;;;;;;;;;;;10.00;99.90;;;;;;5178625;27;19923;-41
2023/10/30 06:38:07;;;;;;;;;;;10.00;99.90;;;;;;5178108;27;19923;-42
2023/10/30 06:40:32;;;;;;;;;;;10.00;99.90;;;;;;5177946;27;19923;-41
2023/10/30 06:42:58;;;;;;;;;;;10.00;99.90;;;;;;5178373;27;19926;-41
2023/10/30 06:45:23;;;;;;;;;;;10.00;99.90;;;;;;5160164;27;19923;-41
2023/10/30 06:47:49;;;;;;;;;;;10.00;99.90;;;;;;5178025;27;19930;-42
2023/10/30 06:50:15;;;;;;;;;;;10.00;99.90;;;;;;5178229;27;19922;-41
2023/10/30 06:52:40;;;;;;;;;;;10.00;99.90;;;;;;5178355;27;19929;-41
2023/10/30 06:55:06;;;;;;;;;;;10.10;99.90;;;;;;5178101;27;20384;-41
2023/10/30 06:57:31;;;;;;;;;;;10.10;99.90;;;;;;5178004;27;19929;-41
2023/10/30 06:59:58;;;;;;;;;;;10.10;99.90;;;;;;5178191;27;19927;-41
2023/10/30 07:02:24;;;;;;;;;;;10.10;99.90;;;;;;5178047;27;19962;-41
2023/10/30 07:04:49;;;;;;;;;;;10.20;99.90;;;;;;5178037;27;19930;-41
2023/10/30 07:07:15;;;;;;;;;;;10.20;99.90;;;;;;5159457;27;19929;-41
2023/10/30 07:09:40;;;;;;;;;;;10.20;99.90;;;;;;5177888;27;19923;-41
2023/10/30 07:12:06;;;;;;;;;;;10.20;99.90;;;;;;5177701;27;19923;-41
2023/10/30 07:14:32;;;;;;;;;;;10.30;99.90;;;;;;5177778;27;20017;-41
2023/10/30 07:16:58;;;;;;;;;;;10.30;99.90;;;;;;5177826;27;20030;-41
2023/10/30 07:19:24;;;;;;;;;;;10.30;99.90;;;;;;5177717;27;20398;-41
2023/10/30 07:21:49;;;;;;;;;;;10.40;99.90;;;;;;5177785;27;20254;-41
2023/10/30 07:24:15;;;;;;;;;;;10.40;99.90;;;;;;5177450;27;20021;-41
2023/10/30 07:26:40;;;;;;;;;;;10.40;99.90;;;;;;5177543;27;19933;-42
2023/10/30 07:29:06;;;;;;;;;;;10.50;99.90;;;;;;5177666;27;20361;-42
2023/10/30 07:31:31;;;;;;;;;;;10.50;99.90;;;;;;5177677;27;19930;-41
2023/10/30 07:33:58;;;;;;;;;;;10.50;99.90;;;;;;5177760;27;20449;-42
2023/10/30 07:36:24;;;;;;;;;;;10.50;99.90;;;;;;5177441;27;19945;-41
2023/10/30 07:38:49;;;;;;;;;;;10.60;99.90;;;;;;5177331;27;20373;-41
2023/10/30 07:41:15;;;;;;;;;;;10.60;99.90;;;;;;5177177;27;19922;-41
2023/10/30 07:43:41;;;;;;;;;;;10.70;99.90;;;;;;5158827;27;19975;-42
2023/10/30 07:46:06;;;;;;;;;;;10.70;99.90;;;;;;5177460;27;20414;-41
2023/10/30 07:48:32;;;;;;;;;;;10.70;99.90;;;;;;5177250;27;19965;-41
2023/10/30 07:51:02;;;;;;;;;;;10.70;99.90;;;;;;5176995;27;19926;-41
2023/10/30 07:53:29;;;;;;;;;;;10.80;99.90;;;;;;5177108;27;20373;-42
2023/10/30 07:55:54;;;;;;;;;;;10.90;99.90;;;;;;5176864;27;19923;-41
2023/10/30 07:58:20;;;;;;;;;;;10.90;99.90;;;;;;5177555;27;19923;-41
2023/10/30 08:00:45;;;;;;;;;;;11.00;99.90;;;;;;5176816;27;19934;-42
2023/10/30 08:03:11;;;;;;;;;;;11.00;99.90;;;;;;5177505;27;19975;-42
2023/10/30 08:05:36;;;;;;;;;;;11.10;99.90;;;;;;5176883;27;19922;-42
2023/10/30 08:08:02;;;;;;;;;;;11.10;99.90;;;;;;5176922;27;19923;-38
2023/10/30 08:10:28;;;;;;;;;;;11.20;99.90;;;;;;5176777;27;20337;-39
2023/10/30 08:12:53;;;;;;;;;;;11.20;99.90;;;;;;5176633;27;19929;-39
2023/10/30 08:15:19;;;;;;;;;;;11.30;99.90;;;;;;5176761;27;19923;-38
2023/10/30 08:17:44;;;;;;;;;;;11.30;99.90;;;;;;5176699;27;20005;-39
2023/10/30 08:20:11;;;;;;;;;;;11.40;99.90;;;;;;5176573;27;19945;-39
2023/10/30 08:22:36;;;;;;;;;;;11.40;99.90;;;;;;5176808;27;19923;-39
2023/10/30 08:25:02;;;;;;;;;;;11.40;99.90;;;;;;5176531;27;19923;-40
2023/10/30 08:27:28;;;;;;;;;;;11.50;99.90;;;;;;5176414;27;19927;-39
2023/10/30 08:29:53;;;;;;;;;;;11.50;99.90;;;;;;5176732;27;20393;-39
2023/10/30 08:32:19;;;;;;;;;;;11.50;99.90;;;;;;5176638;27;19922;-39
2023/10/30 08:34:44;;;;;;;;;;;11.60;99.90;;;;;;5176525;27;19971;-39
2023/10/30 08:37:10;;;;;;;;;;;11.60;99.90;;;;;;5176436;27;19923;-38
2023/10/30 08:39:36;;;;;;;;;;;11.60;99.90;;;;;;5176506;27;19923;-39
2023/10/30 08:42:02;;;;;;;;;;;11.70;99.90;;;;;;5176533;27;19923;-38
2023/10/30 08:44:27;;;;;;;;;;;11.70;99.90;;;;;;5176376;27;19933;-39
2023/10/30 08:46:53;;;;;;;;;;;11.70;99.90;;;;;;5176397;27;20009;-39
2023/10/30 08:49:19;;;;;;;;;;;11.80;99.90;;;;;;5176319;27;20038;-39
2023/10/30 08:51:45;;;;;;;;;;;11.80;99.90;;;;;;5176335;27;20460;-39
2023/10/30 08:54:10;;;;;;;;;;;11.80;99.90;;;;;;5176333;27;19970;-40
2023/10/30 08:56:39;;;;;;;;;;;11.90;99.90;;;;;;5175877;27;19930;-39
2023/10/30 08:59:05;;;;;;;;;;;11.90;99.90;;;;;;5176389;27;19930;-39
2023/10/30 09:01:31;;;;;;;;;;;11.90;99.90;;;;;;5176792;27;19922;-39
2023/10/30 09:03:57;;;;;;;;;;;12.00;99.90;;;;;;5180325;27;19945;-39
2023/10/30 09:06:23;;;;;;;;;;;12.00;99.90;;;;;;5180275;27;20274;-40
2023/10/30 09:08:48;;;;;;;;;;;12.10;99.90;;;;;;5180169;27;20050;-40
2023/10/30 09:11:14;;;;;;;;;;;12.10;99.90;;;;;;5180068;27;19930;-39
2023/10/30 09:13:40;;;;;;;;;;;12.20;99.90;;;;;;5180545;27;19923;-39
2023/10/30 09:16:05;;;;;;;;;;;12.20;99.90;;;;;;5180040;27;19922;-39
2023/10/30 09:18:31;;;;;;;;;;;12.30;99.90;;;;;;5180395;27;20282;-39
2023/10/30 09:20:56;;;;;;;;;;;12.40;99.90;;;;;;5179969;27;19944;-39
2023/10/30 09:23:23;;;;;;;;;;;12.40;99.90;;;;;;5179869;27;19922;-40
2023/10/30 09:25:48;;;;;;;;;;;12.40;99.90;;;;;;5179869;27;19930;-39
2023/10/30 09:28:14;;;;;;;;;;;12.40;99.90;;;;;;5179985;27;20334;-40
2023/10/30 09:30:40;;;;;;;;;;;12.40;99.90;;;;;;5180022;27;19973;-38
2023/10/30 09:33:07;;;;;;;;;;;12.50;99.90;;;;;;5161127;27;20399;-39
2023/10/30 09:35:33;;;;;;;;;;;12.40;99.90;;;;;;5179791;27;19923;-39
2023/10/30 09:37:59;;;;;;;;;;;12.50;99.90;;;;;;5179702;27;20013;-39
2023/10/30 09:40:26;;;;;;;;;;;12.50;99.90;;;;;;5179803;27;19961;-39
2023/10/30 09:42:52;;;;;;;;;;;12.50;99.90;;;;;;5179801;27;19923;-39
2023/10/30 09:45:22;;;;;;;;;;;12.50;99.90;;;;;;5179628;27;19933;-39
2023/10/30 09:47:55;;;;;;;;;;;12.50;99.90;;;;;;5160817;27;20425;-39
2023/10/30 09:50:21;;;;;;;;;;;12.50;99.90;;;;;;5179422;27;19923;-39
2023/10/30 09:52:48;;;;;;;;;;;12.60;99.90;;;;;;5179442;27;20021;-39
2023/10/30 09:55:23;;;;;;;;;;;12.60;99.90;;;;;;5179470;27;20036;-39
2023/10/30 09:57:51;;;;;;;;;;;12.60;99.90;;;;;;5179268;27;19923;-40
2023/10/30 10:00:17;;;;;;;;;;;12.70;99.90;;;;;;5179722;27;20319;-40
2023/10/30 10:02:43;;;;;;;;;;;12.80;99.90;;;;;;5179250;27;20425;-40
2023/10/30 10:05:09;;;;;;;;;;;12.80;99.90;;;;;;5179198;27;20285;-40
2023/10/30 10:07:35;;;;;;;;;;;12.90;99.90;;;;;;5179014;27;19926;-40
2023/10/30 10:10:01;;;;;;;;;;;12.90;99.90;;;;;;5179206;27;19930;-40
2023/10/30 10:12:28;;;;;;;;;;;13.00;99.90;;;;;;5179254;27;19987;-39
2023/10/30 10:14:54;;;;;;;;;;;13.00;99.90;;;;;;5177628;27;20403;-40
2023/10/30 10:17:19;;;;;;;;;;;13.10;99.90;;;;;;5179158;27;19922;-39
2023/10/30 10:19:45;;;;;;;;;;;13.10;99.90;;;;;;5178978;27;19987;-40
2023/10/30 10:22:11;;;;;;;;;;;13.20;99.90;;;;;;5179398;27;19941;-40
2023/10/30 10:24:37;;;;;;;;;;;13.20;99.90;;;;;;5178960;27;20017;-40
2023/10/30 10:27:04;;;;;;;;;;;13.20;99.90;;;;;;5160575;27;20388;-41
2023/10/30 10:29:33;;;;;;;;;;;13.30;99.90;;;;;;5178680;27;19985;-40
2023/10/30 10:31:59;;;;;;;;;;;13.30;99.90;;;;;;5178668;27;19923;-39
2023/10/30 10:34:28;;;;;;;;;;;13.40;99.90;;;;;;5160202;27;19930;-40
2023/10/30 10:36:58;;;;;;;;;;;13.50;99.90;;;;;;5178649;27;20301;-40
2023/10/30 10:39:24;;;;;;;;;;;13.50;99.90;;;;;;5178883;27;19974;-40
2023/10/30 10:41:50;;;;;;;;;;;13.60;99.90;;;;;;5178559;27;20017;-40
2023/10/30 10:44:17;;;;;;;;;;;13.60;99.90;;;;;;5178427;27;20388;-42
2023/10/30 10:46:42;;;;;;;;;;;13.70;99.90;;;;;;5178506;27;19929;-40
2023/10/30 10:49:08;;;;;;;;;;;13.80;99.90;;;;;;5178161;27;19923;-41
2023/10/30 10:51:38;;;;;;;;;;;13.90;99.90;;;;;;5178406;27;19927;-41
2023/10/30 10:54:09;;;;;;;;;;;14.00;99.90;;;;;;5160012;27;19923;-40
2023/10/30 10:56:36;;;;;;;;;;;14.00;99.90;;;;;;5178517;27;19923;-40
2023/10/30 10:59:05;;;;;;;;;;;14.00;99.90;;;;;;5178150;27;19923;-40
2023/10/30 11:01:34;;;;;;;;;;;14.10;99.90;;;;;;5177951;27;20370;-41
2023/10/30 11:04:00;;;;;;;;;;;14.10;99.90;;;;;;5178282;27;19974;-40
2023/10/30 11:06:34;;;;;;;;;;;14.20;99.90;;;;;;5178202;27;20282;-40
2023/10/30 11:09:06;;;;;;;;;;;14.30;99.90;;;;;;5178137;27;19975;-41
2023/10/30 11:11:33;;;;;;;;;;;14.30;99.90;;;;;;5159761;27;19923;-39
2023/10/30 11:14:08;;;;;;;;;;;14.40;99.90;;;;;;5177726;27;19930;-42
2023/10/30 11:16:45;;;;;;;;;;;14.40;99.90;;;;;;5177769;27;19926;-41
2023/10/30 11:19:11;;;;;;;;;;;14.40;99.90;;;;;;5177900;27;19923;-41
2023/10/30 11:21:37;;;;;;;;;;;14.30;99.90;;;;;;5177622;27;19930;-41
2023/10/30 11:24:03;;;;;;;;;;;14.30;99.90;;;;;;5177663;27;20273;-41
2023/10/30 11:26:44;;;;;;;;;;;14.30;99.90;;;;;;5177149;27;19986;-42
2023/10/30 11:29:17;;;;;;;;;;;14.20;99.90;;;;;;5178152;27;19930;-41
2023/10/30 11:31:50;;;;;;;;;;;14.30;99.90;;;;;;5159153;27;20408;-41
2023/10/30 11:34:16;;;;;;;;;;;14.30;99.90;;;;;;5177571;27;19966;-41
2023/10/30 11:36:45;;;;;;;;;;;14.30;99.90;;;;;;5177388;27;19981;-41
2023/10/30 11:39:11;;;;;;;;;;;14.30;99.90;;;;;;5177355;27;20290;-41
2023/10/30 11:41:37;;;;;;;;;;;14.30;99.90;;;;;;5177415;27;19926;-41
2023/10/30 11:44:26;;;;;;;;;;;14.30;99.90;;;;;;5177374;27;19999;-42
2023/10/30 11:46:52;;;;;;;;;;;14.30;99.90;;;;;;5176909;27;19926;-43
2023/10/30 11:49:19;;;;;;;;;;;14.10;99.90;;;;;;5177012;27;19977;-41
2023/10/30 11:51:45;;;;;;;;;;;14.10;99.90;;;;;;5177050;27;20282;-41
2023/10/30 11:54:10;;;;;;;;;;;14.00;99.90;;;;;;5158527;27;19922;-41
2023/10/30 11:56:37;;;;;;;;;;;14.00;99.90;;;;;;5176750;27;19923;-41
2023/10/30 11:59:04;;;;;;;;;;;14.00;99.90;;;;;;5177038;27;19990;-42
2023/10/30 12:01:32;;;;;;;;;;;13.90;99.90;;;;;;5177192;27;19975;-42
2023/10/30 12:03:59;;;;;;;;;;;14.00;99.90;;;;;;5176955;27;20022;-41
2023/10/30 12:06:25;;;;;;;;;;;14.00;99.90;;;;;;5176887;27;20369;-42
2023/10/30 12:08:51;;;;;;;;;;;14.00;99.90;;;;;;5177110;27;19977;-42
2023/10/30 12:11:17;;;;;;;;;;;14.00;99.90;;;;;;5177255;27;19922;-42
2023/10/30 12:13:42;;;;;;;;;;;14.10;99.90;;;;;;5176983;27;19923;-42
2023/10/30 12:16:08;;;;;;;;;;;14.10;99.90;;;;;;5176782;27;19927;-42
2023/10/30 12:18:36;;;;;;;;;;;14.10;99.90;;;;;;5176836;27;19930;-43
2023/10/30 12:21:02;;;;;;;;;;;14.10;99.90;;;;;;5176761;27;19973;-42
2023/10/30 12:23:29;;;;;;;;;;;14.10;99.90;;;;;;5176778;27;19987;-42
2023/10/30 12:26:05;;;;;;;;;;;14.10;99.90;;;;;;5176780;27;20392;-42
2023/10/30 12:28:37;;;;;;;;;;;14.10;99.90;;;;;;5176502;27;20022;-41
2023/10/30 12:31:18;;;;;;;;;;;14.00;99.90;;;;;;5176495;27;19922;-42
2023/10/30 12:33:43;;;;;;;;;;;14.00;99.90;;;;;;5176720;27;19929;-41
2023/10/30 12:36:09;;;;;;;;;;;14.00;99.90;;;;;;5176581;27;19923;-41
2023/10/30 12:38:34;;;;;;;;;;;13.90;99.90;;;;;;5180567;27;19923;-41
2023/10/30 12:41:06;;;;;;;;;;;13.90;99.90;;;;;;5180914;27;20396;-41
2023/10/30 12:43:49;;;;;;;;;;;13.90;99.90;;;;;;5163113;27;19929;-41
2023/10/30 12:46:15;;;;;;;;;;;13.80;99.90;;;;;;5181252;27;20013;-41
2023/10/30 12:48:41;;;;;;;;;;;13.80;99.90;;;;;;5162077;27;20006;-41
2023/10/30 12:51:06;;;;;;;;;;;13.90;99.90;;;;;;5180829;27;19923;-42
2023/10/30 12:53:33;;;;;;;;;;;13.90;99.90;;;;;;5180793;27;19922;-41
2023/10/30 12:55:59;;;;;;;;;;;13.90;99.90;;;;;;5180394;27;20018;-42
2023/10/30 12:58:24;;;;;;;;;;;13.90;99.90;;;;;;5180418;27;19977;-41
2023/10/30 13:00:50;;;;;;;;;;;13.90;99.90;;;;;;5180529;27;19922;-42
2023/10/30 13:03:15;;;;;;;;;;;13.90;99.90;;;;;;5180616;27;20400;-41
2023/10/30 13:05:41;;;;;;;;;;;13.80;99.90;;;;;;5180665;27;19929;-42
2023/10/30 13:08:07;;;;;;;;;;;13.80;99.90;;;;;;5161935;27;19961;-41
2023/10/30 13:10:33;;;;;;;;;;;13.80;99.90;;;;;;5180200;27;19923;-42
2023/10/30 13:12:58;;;;;;;;;;;13.80;99.90;;;;;;5180150;27;19945;-42
2023/10/30 13:15:24;;;;;;;;;;;13.80;99.90;;;;;;5180313;27;19923;-41
2023/10/30 13:17:49;;;;;;;;;;;13.80;99.90;;;;;;5180480;27;20033;-41
2023/10/30 13:20:15;;;;;;;;;;;13.80;99.90;;;;;;5180244;27;19923;-41
2023/10/30 13:22:40;;;;;;;;;;;13.80;99.90;;;;;;5179968;27;20021;-42
2023/10/30 13:25:07;;;;;;;;;;;13.80;99.90;;;;;;5179907;27;19923;-41
2023/10/30 13:27:32;;;;;;;;;;;13.70;99.90;;;;;;5179871;27;19927;-42
2023/10/30 13:29:58;;;;;;;;;;;13.70;99.90;;;;;;5180020;27;19930;-41
2023/10/30 13:32:23;;;;;;;;;;;13.70;99.90;;;;;;5179995;27;20412;-42
2023/10/30 13:34:49;;;;;;;;;;;13.70;99.90;;;;;;5180192;27;19923;-42
2023/10/30 13:37:15;;;;;;;;;;;13.70;99.90;;;;;;5179918;27;20424;-41
2023/10/30 13:39:40;;;;;;;;;;;13.70;99.90;;;;;;5179603;27;19923;-41
2023/10/30 13:42:06;;;;;;;;;;;13.70;99.90;;;;;;5161369;27;19929;-42
2023/10/30 13:44:32;;;;;;;;;;;13.70;99.90;;;;;;5180341;27;19966;-42
2023/10/30 13:46:57;;;;;;;;;;;13.70;99.90;;;;;;5179961;27;20284;-43
2023/10/30 13:49:23;;;;;;;;;;;13.70;99.90;;;;;;5179138;27;20017;-42
2023/10/30 13:51:48;;;;;;;;;;;13.60;99.90;;;;;;5179410;27;20289;-42
2023/10/30 13:54:14;;;;;;;;;;;13.60;99.90;;;;;;5179541;27;19973;-41
2023/10/30 13:56:39;;;;;;;;;;;13.60;99.90;;;;;;5160463;27;19923;-41
2023/10/30 13:59:05;;;;;;;;;;;13.60;99.90;;;;;;5179198;27;19930;-43
2023/10/30 14:01:30;;;;;;;;;;;13.60;99.90;;;;;;5160847;27;19981;-42
2023/10/30 14:03:56;;;;;;;;;;;13.60;99.90;;;;;;5179584;27;20285;-41
2023/10/30 14:06:22;;;;;;;;;;;13.60;99.90;;;;;;5179155;27;19923;-42
2023/10/30 14:08:47;;;;;;;;;;;13.50;99.90;;;;;;5179138;27;19923;-41
2023/10/30 14:11:13;;;;;;;;;;;13.50;99.90;;;;;;5160603;27;20407;-41